createdAt,value
2018-03-29T00:00:26.794Z,96735.42
2018-03-29T00:02:55.855Z,96736.97
2018-03-29T00:05:24.676Z,96738.12
2018-03-29T00:07:53.810Z,96748.71
2018-03-29T00:10:22.073Z,96752.55
2018-03-29T00:12:51.103Z,96753.70
2018-03-29T00:15:19.379Z,96764.16
2018-03-29T00:17:48.404Z,96764.27
2018-03-29T00:20:16.654Z,96758.20
2018-03-29T00:22:45.693Z,96763.47
2018-03-29T00:25:13.954Z,96767.01
2018-03-29T00:27:42.981Z,96769.82
2018-03-29T00:30:11.226Z,96769.42
2018-03-29T00:32:39.483Z,96771.70
2018-03-29T00:35:07.726Z,96772.50
2018-03-29T00:37:36.756Z,96782.16
2018-03-29T00:40:05.036Z,96786.83
2018-03-29T00:42:33.308Z,96796.52
2018-03-29T00:45:02.333Z,96798.01
2018-03-29T00:47:30.609Z,96818.84
2018-03-29T00:49:58.953Z,96815.25
2018-03-29T00:52:27.225Z,96821.08
2018-03-29T00:54:55.550Z,96820.48
2018-03-29T00:57:23.827Z,96831.57
2018-03-29T00:59:52.130Z,96839.64
2018-03-29T01:02:20.391Z,96836.34
2018-03-29T01:04:49.417Z,96849.27
2018-03-29T01:07:17.695Z,96859.80
2018-03-29T01:09:45.976Z,96854.92
2018-03-29T01:12:14.375Z,96848.97
2018-03-29T01:14:42.647Z,96847.39
2018-03-29T01:17:10.915Z,96849.88
2018-03-29T01:19:39.201Z,96847.56
2018-03-29T01:22:07.497Z,96850.48
2018-03-29T01:24:35.847Z,96853.33
2018-03-29T01:27:04.174Z,96856.95
2018-03-29T01:29:32.506Z,96854.31
2018-03-29T01:32:00.868Z,96850.54
2018-03-29T01:34:29.206Z,96860.14
2018-03-29T01:36:57.571Z,96860.55
2018-03-29T01:39:25.879Z,96861.45
2018-03-29T01:41:54.162Z,96874.18
2018-03-29T01:44:22.428Z,96875.47
2018-03-29T01:46:50.857Z,96881.67
2018-03-29T01:49:19.194Z,96884.13
2018-03-29T01:51:47.640Z,96883.69
2018-03-29T01:54:15.908Z,96885.92
2018-03-29T01:56:44.932Z,96892.13
2018-03-29T01:59:13.278Z,96892.98
2018-03-29T02:01:41.566Z,96891.52
2018-03-29T02:04:09.812Z,96894.34
2018-03-29T02:06:38.080Z,96884.55
2018-03-29T02:09:06.348Z,96879.64
2018-03-29T02:11:34.629Z,96873.34
2018-03-29T02:14:02.902Z,96870.73
2018-03-29T02:16:31.936Z,96858.65
2018-03-29T02:19:00.208Z,96858.25
2018-03-29T02:21:28.508Z,96854.52
2018-03-29T02:23:56.990Z,96843.92
2018-03-29T02:26:25.412Z,96843.81
2018-03-29T02:28:53.696Z,96856.19
2018-03-29T02:31:22.071Z,96851.91
2018-03-29T02:33:50.326Z,96855.81
2018-03-29T02:36:19.354Z,96856.62
2018-03-29T02:38:47.607Z,96864.12
2018-03-29T02:41:16.658Z,96872.23
2018-03-29T02:43:44.940Z,96880.98
2018-03-29T02:46:13.232Z,96877.54
2018-03-29T02:48:41.508Z,96895.12
2018-03-29T02:51:11.461Z,96905.41
2018-03-29T02:53:39.710Z,96901.56
2018-03-29T02:56:08.025Z,96915.15
2018-03-29T02:58:36.521Z,96920.71
2018-03-29T03:01:05.637Z,96924.71
2018-03-29T03:03:33.908Z,96932.17
2018-03-29T03:06:02.320Z,96934.16
2018-03-29T03:08:31.329Z,96925.95
2018-03-29T03:10:59.637Z,96937.31
2018-03-29T03:13:27.928Z,96935.20
2018-03-29T03:15:56.233Z,96939.42
2018-03-29T03:18:24.550Z,96939.83
2018-03-29T03:20:52.789Z,96938.02
2018-03-29T03:23:21.088Z,96934.89
2018-03-29T03:25:49.385Z,96937.66
2018-03-29T03:28:17.665Z,96934.91
2018-03-29T03:30:45.923Z,96928.66
2018-03-29T03:33:14.239Z,96926.41
2018-03-29T03:35:42.624Z,96922.19
2018-03-29T03:38:10.996Z,96923.21
2018-03-29T03:40:39.266Z,96923.55
2018-03-29T03:43:08.293Z,96926.53
2018-03-29T03:45:36.547Z,96935.07
2018-03-29T03:48:04.873Z,96936.16
2018-03-29T03:50:33.128Z,96943.23
2018-03-29T03:53:01.393Z,96946.02
2018-03-29T03:55:29.678Z,96950.20
2018-03-29T03:57:58.049Z,96946.53
2018-03-29T04:00:26.339Z,96946.94
2018-03-29T04:02:54.636Z,96944.06
2018-03-29T04:05:22.884Z,96944.25
2018-03-29T04:07:51.911Z,96945.91
2018-03-29T04:10:20.198Z,96942.81
2018-03-29T04:12:48.496Z,96940.64
2018-03-29T04:15:16.844Z,96943.00
2018-03-29T04:17:45.220Z,96945.84
2018-03-29T04:20:13.485Z,96952.05
2018-03-29T04:22:41.844Z,96945.67
2018-03-29T04:25:10.868Z,96947.25
2018-03-29T04:27:39.136Z,96952.28
2018-03-29T04:30:08.756Z,96951.24
2018-03-29T04:32:37.781Z,96955.34
2018-03-29T04:35:06.050Z,96952.20
2018-03-29T04:37:35.075Z,96950.72
2018-03-29T04:40:03.322Z,96954.91
2018-03-29T04:42:31.597Z,96961.84
2018-03-29T04:44:59.967Z,96967.45
2018-03-29T04:47:28.249Z,96965.47
2018-03-29T04:49:56.547Z,96962.02
2018-03-29T04:52:24.888Z,96957.38
2018-03-29T04:54:54.504Z,96961.17
2018-03-29T04:57:23.582Z,96965.06
2018-03-29T04:59:51.903Z,96971.53
2018-03-29T05:02:20.238Z,96977.78
2018-03-29T05:04:48.546Z,96980.53
2018-03-29T05:07:16.820Z,96983.40
2018-03-29T05:09:45.090Z,96983.17
2018-03-29T05:12:13.379Z,96986.30
2018-03-29T05:14:41.628Z,96987.59
2018-03-29T05:17:09.893Z,96996.94
2018-03-29T05:19:38.126Z,97002.90
2018-03-29T05:22:07.170Z,97004.21
2018-03-29T05:24:35.442Z,96994.86
2018-03-29T05:27:03.694Z,96993.63
2018-03-29T05:29:31.938Z,97006.95
2018-03-29T05:32:00.215Z,96991.97
2018-03-29T05:34:28.507Z,96991.41
2018-03-29T05:36:57.947Z,96999.44
2018-03-29T05:39:26.261Z,97002.78
2018-03-29T05:41:54.683Z,97006.80
2018-03-29T05:44:22.984Z,97013.98
2018-03-29T05:46:52.056Z,97006.17
2018-03-29T05:49:20.390Z,97016.55
2018-03-29T05:51:48.671Z,97014.07
2018-03-29T05:54:16.994Z,97015.98
2018-03-29T05:56:45.274Z,97016.23
2018-03-29T05:59:13.656Z,97028.37
2018-03-29T06:01:41.904Z,97029.37
2018-03-29T06:04:10.940Z,97027.25
2018-03-29T06:06:39.248Z,97037.27
2018-03-29T06:09:08.746Z,97048.41
2018-03-29T06:11:37.768Z,97046.66
2018-03-29T06:14:08.116Z,97042.77
2018-03-29T06:16:41.899Z,97053.33
2018-03-29T06:19:11.017Z,97041.66
2018-03-29T06:21:40.126Z,97047.13
2018-03-29T06:24:08.420Z,97042.48
2018-03-29T06:26:36.683Z,97046.00
2018-03-29T06:29:04.970Z,97049.95
2018-03-29T06:31:34.364Z,97047.50
2018-03-29T06:34:02.674Z,97056.67
2018-03-29T06:36:31.021Z,97062.53
2018-03-29T06:38:59.408Z,97060.72
2018-03-29T06:41:27.704Z,97064.66
2018-03-29T06:43:55.979Z,97060.52
2018-03-29T06:46:24.312Z,97054.48
2018-03-29T06:48:53.415Z,97063.09
2018-03-29T06:51:23.194Z,97060.70
2018-03-29T06:53:51.485Z,97054.45
2018-03-29T06:56:20.526Z,97053.44
2018-03-29T06:58:48.821Z,97048.16
2018-03-29T07:01:17.132Z,97050.13
2018-03-29T07:03:45.471Z,97040.39
2018-03-29T07:06:13.736Z,97051.51
2018-03-29T07:08:42.024Z,97050.70
2018-03-29T07:11:10.355Z,97049.22
2018-03-29T07:13:38.629Z,97048.92
2018-03-29T07:16:06.908Z,97057.13
2018-03-29T07:18:35.182Z,97048.47
2018-03-29T07:21:04.224Z,97051.19
2018-03-29T07:23:32.505Z,97046.33
2018-03-29T07:26:00.752Z,97047.28
2018-03-29T07:28:29.809Z,97053.09
2018-03-29T07:30:58.150Z,97048.45
2018-03-29T07:33:27.224Z,97052.15
2018-03-29T07:35:55.511Z,97055.93
2018-03-29T07:38:23.805Z,97054.20
2018-03-29T07:40:52.059Z,97050.50
2018-03-29T07:43:20.344Z,97038.33
2018-03-29T07:45:48.648Z,97035.99
2018-03-29T07:48:16.917Z,97032.83
2018-03-29T07:50:45.211Z,97029.35
2018-03-29T07:53:13.546Z,97022.67
2018-03-29T07:55:41.815Z,97016.58
2018-03-29T07:58:10.086Z,97012.66
2018-03-29T08:00:38.426Z,97012.48
2018-03-29T08:03:06.691Z,97009.18
2018-03-29T08:05:34.988Z,97023.37
2018-03-29T08:08:04.031Z,97016.36
2018-03-29T08:10:33.088Z,97036.36
2018-03-29T08:13:01.350Z,97042.30
2018-03-29T08:15:29.636Z,97041.27
2018-03-29T08:17:58.666Z,97039.44
2018-03-29T08:20:26.984Z,97044.14
2018-03-29T08:22:55.315Z,97051.95
2018-03-29T08:25:23.665Z,97043.80
2018-03-29T08:27:51.925Z,97053.65
2018-03-29T08:30:20.980Z,97051.30
2018-03-29T08:32:49.268Z,97060.02
2018-03-29T08:35:17.525Z,97053.93
2018-03-29T08:37:45.801Z,97054.67
2018-03-29T08:40:14.063Z,97062.83
2018-03-29T08:42:42.324Z,97058.05
2018-03-29T08:45:10.579Z,97060.38
2018-03-29T08:47:38.844Z,97057.45
2018-03-29T08:50:07.122Z,97058.22
2018-03-29T08:52:35.374Z,97044.03
2018-03-29T08:55:04.417Z,97051.22
2018-03-29T08:57:32.728Z,97049.68
2018-03-29T09:00:01.114Z,97052.45
2018-03-29T09:02:29.380Z,97055.05
2018-03-29T09:04:59.199Z,97061.16
2018-03-29T09:07:28.237Z,97060.87
2018-03-29T09:09:56.614Z,97064.55
2018-03-29T09:12:24.942Z,97053.45
2018-03-29T09:14:53.324Z,97060.16
2018-03-29T09:17:21.568Z,97060.88
2018-03-29T09:19:50.693Z,97063.08
2018-03-29T09:22:19.046Z,97062.31
2018-03-29T09:24:47.371Z,97056.61
2018-03-29T09:27:15.675Z,97059.45
2018-03-29T09:29:44.060Z,97059.17
2018-03-29T09:32:12.331Z,97060.01
2018-03-29T09:34:41.470Z,97063.58
2018-03-29T09:37:09.746Z,97065.66
2018-03-29T09:39:38.016Z,97061.96
2018-03-29T09:42:07.028Z,97056.32
2018-03-29T09:44:36.088Z,97062.53
2018-03-29T09:47:04.356Z,97063.20
2018-03-29T09:49:32.624Z,97059.73
2018-03-29T09:52:00.868Z,97067.67
2018-03-29T09:54:29.325Z,97065.73
2018-03-29T09:56:57.800Z,97055.28
2018-03-29T09:59:26.094Z,97055.16
2018-03-29T10:01:54.413Z,97058.17
2018-03-29T10:04:22.693Z,97050.80
2018-03-29T10:09:51.602Z,97044.59
2018-03-29T10:12:20.636Z,97031.35
2018-03-29T10:14:48.927Z,97032.47
2018-03-29T10:17:17.184Z,97024.12
2018-03-29T10:19:45.442Z,97011.83
2018-03-29T10:22:13.727Z,97013.19
2018-03-29T10:24:42.049Z,97016.46
2018-03-29T10:27:11.082Z,97012.72
2018-03-29T10:29:40.188Z,97000.05
2018-03-29T10:32:08.460Z,96989.80
2018-03-29T10:34:36.724Z,96990.61
2018-03-29T10:37:05.779Z,96995.66
2018-03-29T10:39:34.040Z,96998.28
2018-03-29T10:42:03.153Z,96992.66
2018-03-29T10:44:32.178Z,96985.90
2018-03-29T10:47:00.470Z,96981.86
2018-03-29T10:49:28.740Z,96977.98
2018-03-29T10:51:57.777Z,96975.67
2018-03-29T10:54:26.069Z,96978.62
2018-03-29T10:56:54.388Z,96983.27
2018-03-29T10:59:23.438Z,96978.50
2018-03-29T11:01:51.713Z,96983.37
2018-03-29T11:04:20.785Z,96986.83
2018-03-29T11:06:49.233Z,96989.05
2018-03-29T11:09:17.503Z,96998.78
2018-03-29T11:11:46.560Z,96995.06
2018-03-29T11:14:14.827Z,96998.52
2018-03-29T11:16:43.187Z,96996.87
2018-03-29T11:19:12.328Z,96990.63
2018-03-29T11:21:40.597Z,96986.72
2018-03-29T11:24:09.818Z,96989.16
2018-03-29T11:26:38.233Z,96986.24
2018-03-29T11:29:06.498Z,96991.52
2018-03-29T11:31:34.782Z,96991.92
2018-03-29T11:34:03.798Z,96989.65
2018-03-29T11:36:32.154Z,96984.43
2018-03-29T11:39:01.200Z,96975.17
2018-03-29T11:41:29.475Z,96978.23
2018-03-29T11:43:57.731Z,96978.09
2018-03-29T11:46:26.020Z,96973.92
2018-03-29T11:48:54.300Z,96973.71
2018-03-29T11:51:22.584Z,96967.83
2018-03-29T11:53:51.650Z,96969.56
2018-03-29T11:56:19.921Z,96955.05
2018-03-29T11:58:49.033Z,96954.39
2018-03-29T12:01:18.160Z,96958.51
2018-03-29T12:03:46.452Z,96962.47
2018-03-29T12:06:14.850Z,96966.91
2018-03-29T12:08:43.151Z,96970.22
2018-03-29T12:11:11.477Z,96962.97
2018-03-29T12:13:40.534Z,96964.05
2018-03-29T12:16:09.106Z,96960.94
2018-03-29T12:18:38.163Z,96960.36
2018-03-29T12:21:07.593Z,96961.19
2018-03-29T12:23:35.894Z,96962.52
2018-03-29T12:26:04.225Z,96955.84
2018-03-29T12:28:33.668Z,96960.94
2018-03-29T12:31:01.943Z,96956.41
2018-03-29T12:33:30.236Z,96948.95
2018-03-29T12:35:58.591Z,96950.59
2018-03-29T12:38:27.651Z,96952.80
2018-03-29T12:40:56.047Z,96950.47
2018-03-29T12:43:24.499Z,96942.33
2018-03-29T12:45:52.795Z,96951.56
2018-03-29T12:48:21.113Z,96945.54
2018-03-29T12:50:49.364Z,96957.81
2018-03-29T12:53:17.642Z,96956.10
2018-03-29T12:55:46.714Z,96962.70
2018-03-29T12:58:14.973Z,96947.77
2018-03-29T13:00:43.333Z,96952.41
2018-03-29T13:03:11.670Z,96948.62
2018-03-29T13:05:39.943Z,96947.41
2018-03-29T13:08:08.220Z,96949.98
2018-03-29T13:10:36.480Z,96948.50
2018-03-29T13:13:04.756Z,96953.70
2018-03-29T13:15:33.020Z,96941.58
2018-03-29T13:18:01.300Z,96952.59
2018-03-29T13:20:29.588Z,96953.55
2018-03-29T13:22:57.861Z,96947.22
2018-03-29T13:25:26.173Z,96956.09
2018-03-29T13:27:54.462Z,96954.31
2018-03-29T13:30:23.493Z,96945.06
2018-03-29T13:32:51.832Z,96943.73
2018-03-29T13:35:20.101Z,96942.94
2018-03-29T13:37:49.152Z,96941.41
2018-03-29T13:40:17.424Z,96941.12
2018-03-29T13:42:45.817Z,96942.34
2018-03-29T13:45:14.123Z,96945.42
2018-03-29T13:47:42.508Z,96942.02
2018-03-29T13:50:10.784Z,96937.20
2018-03-29T13:52:39.056Z,96936.59
2018-03-29T13:55:07.323Z,96941.00
2018-03-29T13:57:36.963Z,96934.27
2018-03-29T14:00:06.856Z,96933.67
2018-03-29T14:02:35.125Z,96925.23
2018-03-29T14:05:04.192Z,96917.99
2018-03-29T14:07:33.246Z,96914.72
2018-03-29T14:10:01.546Z,96924.08
2018-03-29T14:12:29.827Z,96917.46
2018-03-29T14:14:58.107Z,96925.19
2018-03-29T14:17:26.428Z,96929.35
2018-03-29T14:19:55.514Z,96922.25
2018-03-29T14:22:25.771Z,96929.17
2018-03-29T14:24:55.683Z,96925.36
2018-03-29T14:27:23.944Z,96926.59
2018-03-29T14:29:52.220Z,96927.79
2018-03-29T14:32:20.486Z,96913.73
2018-03-29T14:34:49.526Z,96922.66
2018-03-29T14:37:17.785Z,96916.07
2018-03-29T14:39:46.077Z,96915.17
2018-03-29T14:42:14.408Z,96914.04
2018-03-29T14:44:42.700Z,96915.37
2018-03-29T14:47:10.960Z,96913.41
2018-03-29T14:49:39.335Z,96914.05
2018-03-29T14:52:08.946Z,96917.88
2018-03-29T14:54:38.022Z,96910.82
2018-03-29T14:57:07.065Z,96911.86
2018-03-29T14:59:36.118Z,96914.73
2018-03-29T15:02:04.481Z,96913.83
2018-03-29T15:04:32.771Z,96909.17
2018-03-29T15:07:01.037Z,96905.95
2018-03-29T15:09:30.095Z,96907.03
2018-03-29T15:11:58.365Z,96901.80
2018-03-29T15:14:27.445Z,96897.92
2018-03-29T15:16:56.489Z,96903.11
2018-03-29T15:19:24.826Z,96910.34
2018-03-29T15:21:53.906Z,96911.30
2018-03-29T15:24:22.183Z,96909.55
2018-03-29T15:26:50.448Z,96912.47
2018-03-29T15:29:18.716Z,96910.34
2018-03-29T15:31:47.733Z,96910.46
2018-03-29T15:34:16.764Z,96909.16
2018-03-29T15:36:45.020Z,96901.45
2018-03-29T15:39:14.075Z,96914.71
2018-03-29T15:41:42.328Z,96903.55
2018-03-29T15:44:11.956Z,96911.66
2018-03-29T15:46:40.988Z,96904.92
2018-03-29T15:49:09.260Z,96906.30
2018-03-29T15:51:37.528Z,96899.83
2018-03-29T15:54:06.577Z,96898.98
2018-03-29T15:56:34.837Z,96907.91
2018-03-29T15:59:03.926Z,96906.09
2018-03-29T16:01:32.197Z,96901.13
2018-03-29T16:04:00.455Z,96903.77
2018-03-29T16:06:28.737Z,96901.75
2018-03-29T16:08:56.999Z,96903.66
2018-03-29T16:11:25.284Z,96908.42
2018-03-29T16:13:54.343Z,96904.92
2018-03-29T16:16:22.640Z,96911.88
2018-03-29T16:18:50.893Z,96911.81
2018-03-29T16:21:19.161Z,96907.89
2018-03-29T16:23:47.567Z,96922.03
2018-03-29T16:26:15.846Z,96916.04
2018-03-29T16:28:44.866Z,96923.98
2018-03-29T16:31:13.196Z,96922.68
2018-03-29T16:33:41.457Z,96922.41
2018-03-29T16:36:09.733Z,96928.97
2018-03-29T16:38:37.980Z,96930.50
2018-03-29T16:41:06.248Z,96931.63
2018-03-29T16:43:34.505Z,96934.86
2018-03-29T16:46:04.280Z,96936.47
2018-03-29T16:48:33.879Z,96939.00
2018-03-29T16:51:02.164Z,96944.01
2018-03-29T16:53:30.421Z,96953.11
2018-03-29T16:55:58.696Z,96954.81
2018-03-29T16:58:27.738Z,96951.48
2018-03-29T17:00:56.024Z,96957.43
2018-03-29T17:03:24.316Z,96959.77
2018-03-29T17:05:52.588Z,96962.48
2018-03-29T17:08:20.848Z,96966.58
2018-03-29T17:10:49.163Z,96958.02
2018-03-29T17:13:17.416Z,96966.18
2018-03-29T17:15:46.272Z,96963.69
2018-03-29T17:18:14.524Z,96977.22
2018-03-29T17:20:44.305Z,96978.48
2018-03-29T17:23:12.576Z,96979.11
2018-03-29T17:25:40.842Z,96983.55
2018-03-29T17:28:09.864Z,96985.00
2018-03-29T17:30:38.135Z,96989.14
2018-03-29T17:33:07.525Z,96990.91
2018-03-29T17:35:35.821Z,96992.11
2018-03-29T17:38:04.855Z,96988.02
2018-03-29T17:40:33.117Z,96983.13
2018-03-29T17:43:02.156Z,96987.15
2018-03-29T17:45:30.408Z,96989.71
2018-03-29T17:47:58.747Z,96982.80
2018-03-29T17:50:26.969Z,96985.23
2018-03-29T17:52:55.278Z,96982.37
2018-03-29T17:55:24.975Z,96984.05
2018-03-29T17:57:53.268Z,96983.93
2018-03-29T18:00:21.530Z,96976.10
2018-03-29T18:02:49.838Z,96983.98
2018-03-29T18:05:18.087Z,96985.80
2018-03-29T18:07:47.292Z,96985.75
2018-03-29T18:10:15.586Z,96991.95
2018-03-29T18:12:43.870Z,96986.69
2018-03-29T18:15:12.131Z,96992.34
2018-03-29T18:17:40.405Z,96991.70
2018-03-29T18:20:08.683Z,96998.81
2018-03-29T18:22:36.939Z,96992.98
2018-03-29T18:25:05.208Z,97004.87
2018-03-29T18:27:34.244Z,96998.94
2018-03-29T18:30:02.514Z,97010.19
2018-03-29T18:32:30.838Z,97012.58
2018-03-29T18:34:59.174Z,97016.87
2018-03-29T18:37:27.520Z,97022.16
2018-03-29T18:39:55.911Z,97018.78
2018-03-29T18:42:25.587Z,97013.01
2018-03-29T18:44:53.856Z,97008.17
2018-03-29T18:47:22.908Z,97022.34
2018-03-29T18:49:51.162Z,97006.56
2018-03-29T18:52:20.478Z,97006.53
2018-03-29T18:54:49.624Z,97011.40
2018-03-29T18:57:17.908Z,97010.33
2018-03-29T18:59:47.300Z,97018.45
2018-03-29T19:02:16.981Z,97009.73
2018-03-29T19:04:45.250Z,97009.91
2018-03-29T19:07:13.532Z,97004.01
2018-03-29T19:09:41.840Z,97005.02
2018-03-29T19:12:10.112Z,97008.00
2018-03-29T19:14:38.417Z,97021.14
2018-03-29T19:17:06.727Z,97016.55
2018-03-29T19:19:35.067Z,97023.59
2018-03-29T19:22:04.093Z,97020.25
2018-03-29T19:24:32.368Z,97013.23
2018-03-29T19:27:00.689Z,97010.30
2018-03-29T19:29:29.050Z,97012.56
2018-03-29T19:31:57.387Z,97021.00
2018-03-29T19:34:26.613Z,97015.71
2018-03-29T19:36:54.902Z,97027.97
2018-03-29T19:39:23.963Z,97026.22
2018-03-29T19:41:52.283Z,97030.69
2018-03-29T19:44:20.611Z,97039.31
2018-03-29T19:46:48.898Z,97038.81
2018-03-29T19:49:18.055Z,97034.56
2018-03-29T19:51:46.429Z,97035.81
2018-03-29T19:54:14.745Z,97032.78
2018-03-29T19:56:43.029Z,97034.67
2018-03-29T19:59:11.332Z,97030.69
2018-03-29T20:01:39.597Z,97030.36
2018-03-29T20:04:08.664Z,97035.02
2018-03-29T20:06:37.697Z,97036.73
2018-03-29T20:09:06.072Z,97033.44
2018-03-29T20:11:34.340Z,97040.99
2018-03-29T20:14:02.613Z,97037.66
2018-03-29T20:16:30.885Z,97045.27
2018-03-29T20:18:59.172Z,97043.39
2018-03-29T20:21:27.532Z,97046.40
2018-03-29T20:23:55.803Z,97047.26
2018-03-29T20:26:24.119Z,97047.63
2018-03-29T20:28:52.761Z,97055.27
2018-03-29T20:31:21.813Z,97052.55
2018-03-29T20:33:50.938Z,97052.60
2018-03-29T20:36:19.212Z,97047.05
2018-03-29T20:38:47.532Z,97051.30
2018-03-29T20:41:15.814Z,97044.09
2018-03-29T20:43:44.096Z,97044.30
2018-03-29T20:46:12.398Z,97045.86
2018-03-29T20:48:40.681Z,97047.35
2018-03-29T20:51:08.992Z,97048.03
2018-03-29T20:53:37.255Z,97045.28
2018-03-29T20:56:05.551Z,97048.11
2018-03-29T20:58:33.872Z,97041.33
2018-03-29T21:01:02.948Z,97036.45
2018-03-29T21:03:31.240Z,97031.62
2018-03-29T21:05:59.605Z,97025.84
2018-03-29T21:08:27.929Z,97024.49
2018-03-29T21:10:56.337Z,97016.54
2018-03-29T21:13:24.695Z,97023.48
2018-03-29T21:15:52.990Z,97022.00
2018-03-29T21:18:22.350Z,97022.16
2018-03-29T21:20:51.440Z,97030.17
2018-03-29T21:23:20.527Z,97025.77
2018-03-29T21:25:48.864Z,97028.87
2018-03-29T21:28:17.218Z,97023.05
2018-03-29T21:30:45.597Z,97031.46
2018-03-29T21:33:13.878Z,97045.66
2018-03-29T21:35:42.249Z,97042.66
2018-03-29T21:38:10.519Z,97045.50
2018-03-29T21:40:39.649Z,97044.43
2018-03-29T21:43:07.964Z,97041.41
2018-03-29T21:45:36.167Z,97042.58
2018-03-29T21:48:04.412Z,97039.42
2018-03-29T21:50:32.725Z,97042.36
2018-03-29T21:53:00.989Z,97037.46
2018-03-29T21:55:29.271Z,97026.31
2018-03-29T21:57:57.555Z,97034.22
2018-03-29T22:00:26.644Z,97027.13
2018-03-29T22:02:55.005Z,97037.86
2018-03-29T22:05:23.258Z,97034.52
2018-03-29T22:07:51.529Z,97045.34
2018-03-29T22:10:20.589Z,97037.69
2018-03-29T22:12:48.856Z,97041.61
2018-03-29T22:15:17.132Z,97041.35
2018-03-29T22:17:45.399Z,97052.09
2018-03-29T22:20:14.417Z,97050.56
2018-03-29T22:22:42.709Z,97054.69
2018-03-29T22:25:10.991Z,97052.25
2018-03-29T22:27:39.215Z,97044.83
2018-03-29T22:30:07.455Z,97045.02
2018-03-29T22:32:36.498Z,97045.91
2018-03-29T22:35:04.751Z,97057.59
2018-03-29T22:37:33.041Z,97054.94
2018-03-29T22:40:02.057Z,97057.95
2018-03-29T22:42:31.090Z,97063.59
2018-03-29T22:44:59.375Z,97069.11
2018-03-29T22:47:27.634Z,97064.33
2018-03-29T22:49:56.787Z,97067.06
2018-03-29T22:52:25.055Z,97067.13
2018-03-29T22:54:53.322Z,97068.55
2018-03-29T22:57:22.355Z,97065.00
2018-03-29T22:59:50.616Z,97054.41
2018-03-29T23:02:19.645Z,97060.79
2018-03-29T23:04:47.903Z,97054.72
2018-03-29T23:07:17.763Z,97054.61
2018-03-29T23:09:46.049Z,97051.52
2018-03-29T23:12:14.355Z,97053.11
2018-03-29T23:14:42.628Z,97050.58
2018-03-29T23:17:10.897Z,97055.69
2018-03-29T23:19:39.907Z,97043.69
2018-03-29T23:22:08.973Z,97038.92
2018-03-29T23:24:37.220Z,97040.34
2018-03-29T23:27:06.256Z,97037.75
2018-03-29T23:29:34.517Z,97033.97
2018-03-29T23:32:02.793Z,97026.42
2018-03-29T23:34:31.810Z,97028.74
2018-03-29T23:37:00.833Z,97024.95
2018-03-29T23:39:29.200Z,97015.33
2018-03-29T23:41:58.251Z,97004.87
2018-03-29T23:44:26.545Z,97009.19
2018-03-29T23:46:54.837Z,97002.47
2018-03-29T23:49:23.182Z,97004.33
2018-03-29T23:51:51.433Z,96999.02
2018-03-29T23:54:19.781Z,96990.88
2018-03-29T23:56:49.186Z,96991.39
2018-03-29T23:59:17.558Z,96994.22
